アナディリ の空港の天気 - METARとTAF

アナディリ・ウゴルヌイ空港 ( UHMA / DYR ) - ロシア アナディリ
飛行場実況気象(Metar)
観測時間12/07 08:00 MAGT (12/06 21:00 UTC)
風向・風速北東 12m/s
視程5000m
天気現象高い地吹雪
なし
気温-10℃
湿度73%
気圧1005hPa
METARUHMA 062100Z 05012MPS 5000 BLSN NSC M10/M14 Q1005 R01/////// NOSIG RMK TDZ R01/05012G16MPS END R01/06014G18MPS QFE750/1000
過去の天気等 Google飛行場航空写真 Wunderground天気予報

過去48時間のMETAR

飛行場予報(TAF)
発表時間: 12/07 06:53 MAGT (12/06 19:53 UTC)
予報対象時間: 7日8時 MAGT ~ 8日8時 MAGT
風向・風速北東 9m/s 瞬間風速 15m/s
視程10km以上
全天の4割程度の雲 雲底高度 910m
7日8時 MAGT ~ 7日20時 MAGT に一時的に
風向・風速東北東 15m/s 瞬間風速 20m/s
視程2100m
天気現象弱い雪 高い地吹雪
全天の4割程度の雲 雲底高度 300m
全天の8割程度の雲 雲底高度 610m
7日20時 MAGT ~ 8日8時 MAGT に一時的に
風向・風速北 14m/s 瞬間風速 19m/s
視程3100m
天気現象弱い雪 高い地吹雪
全天の4割程度の雲 雲底高度 300m
全天の8割程度の雲 雲底高度 610m
TAF UHMA 061953Z 0621/0721 04009G15MPS 9999 SCT030
TEMPO 0621/0709 07015G20MPS 2100 -SN BLSN SCT010 BKN020
TEMPO 0709/0721 35014G19MPS 3100 -SN BLSN SCT010 BKN020